sensor_id;sensor_type;location;lat;lon;timestamp;temperature;humidity
17659;DHT22;8948;51.534;8.262;2023-12-20T00:02:57;8.00;83.80
17659;DHT22;8948;51.534;8.262;2023-12-20T00:07:58;8.00;84.20
17659;DHT22;8948;51.534;8.262;2023-12-20T00:12:59;8.00;84.40
17659;DHT22;8948;51.534;8.262;2023-12-20T00:17:59;7.90;84.20
17659;DHT22;8948;51.534;8.262;2023-12-20T00:23:01;8.00;84.30
17659;DHT22;8948;51.534;8.262;2023-12-20T00:28:03;8.00;84.50
17659;DHT22;8948;51.534;8.262;2023-12-20T00:33:03;8.00;84.50
17659;DHT22;8948;51.534;8.262;2023-12-20T00:38:04;8.00;84.40
17659;DHT22;8948;51.534;8.262;2023-12-20T00:43:05;8.00;84.20
17659;DHT22;8948;51.534;8.262;2023-12-20T00:48:06;8.00;84.20
17659;DHT22;8948;51.534;8.262;2023-12-20T00:53:07;8.00;83.90
17659;DHT22;8948;51.534;8.262;2023-12-20T00:58:07;7.90;83.80
17659;DHT22;8948;51.534;8.262;2023-12-20T01:03:08;7.90;83.40
17659;DHT22;8948;51.534;8.262;2023-12-20T01:08:08;7.90;83.30
17659;DHT22;8948;51.534;8.262;2023-12-20T01:13:09;7.90;83.00
17659;DHT22;8948;51.534;8.262;2023-12-20T01:18:09;7.90;83.50
17659;DHT22;8948;51.534;8.262;2023-12-20T01:23:10;7.90;83.00
17659;DHT22;8948;51.534;8.262;2023-12-20T01:28:10;7.90;83.20
17659;DHT22;8948;51.534;8.262;2023-12-20T01:33:11;7.90;83.00
17659;DHT22;8948;51.534;8.262;2023-12-20T01:38:12;7.80;82.70
17659;DHT22;8948;51.534;8.262;2023-12-20T01:43:13;7.70;82.30
17659;DHT22;8948;51.534;8.262;2023-12-20T01:48:15;7.70;82.20
17659;DHT22;8948;51.534;8.262;2023-12-20T01:53:17;7.70;82.40
17659;DHT22;8948;51.534;8.262;2023-12-20T01:58:19;7.70;82.50
17659;DHT22;8948;51.534;8.262;2023-12-20T02:03:20;7.60;82.50
17659;DHT22;8948;51.534;8.262;2023-12-20T02:08:21;7.60;82.70
17659;DHT22;8948;51.534;8.262;2023-12-20T02:13:22;7.50;81.70
17659;DHT22;8948;51.534;8.262;2023-12-20T02:18:22;7.50;81.40
17659;DHT22;8948;51.534;8.262;2023-12-20T02:23:23;7.40;80.60
17659;DHT22;8948;51.534;8.262;2023-12-20T02:28:24;7.40;81.10
17659;DHT22;8948;51.534;8.262;2023-12-20T02:33:25;7.30;81.40
17659;DHT22;8948;51.534;8.262;2023-12-20T02:38:25;7.30;80.90
17659;DHT22;8948;51.534;8.262;2023-12-20T02:43:26;7.20;80.90
17659;DHT22;8948;51.534;8.262;2023-12-20T02:48:26;7.30;80.90
17659;DHT22;8948;51.534;8.262;2023-12-20T02:53:27;7.20;80.00
17659;DHT22;8948;51.534;8.262;2023-12-20T02:58:27;7.20;79.50
17659;DHT22;8948;51.534;8.262;2023-12-20T03:03:28;7.10;79.10
17659;DHT22;8948;51.534;8.262;2023-12-20T03:08:28;7.10;78.60
17659;DHT22;8948;51.534;8.262;2023-12-20T03:13:29;7.10;78.20
17659;DHT22;8948;51.534;8.262;2023-12-20T03:18:29;7.00;78.50
17659;DHT22;8948;51.534;8.262;2023-12-20T03:23:30;7.00;78.20
17659;DHT22;8948;51.534;8.262;2023-12-20T03:28:32;6.90;78.70
17659;DHT22;8948;51.534;8.262;2023-12-20T03:33:33;7.00;78.60
17659;DHT22;8948;51.534;8.262;2023-12-20T03:38:33;7.00;78.60
17659;DHT22;8948;51.534;8.262;2023-12-20T03:43:34;7.00;78.50
17659;DHT22;8948;51.534;8.262;2023-12-20T03:48:34;7.10;77.80
17659;DHT22;8948;51.534;8.262;2023-12-20T03:53:35;7.10;77.50
17659;DHT22;8948;51.534;8.262;2023-12-20T03:58:35;7.00;77.80
17659;DHT22;8948;51.534;8.262;2023-12-20T04:03:36;6.90;77.40
17659;DHT22;8948;51.534;8.262;2023-12-20T04:08:36;6.90;77.40
17659;DHT22;8948;51.534;8.262;2023-12-20T04:13:37;6.90;77.30
17659;DHT22;8948;51.534;8.262;2023-12-20T04:18:37;6.90;77.70
17659;DHT22;8948;51.534;8.262;2023-12-20T04:23:38;7.00;77.50
17659;DHT22;8948;51.534;8.262;2023-12-20T04:28:38;6.90;77.60
17659;DHT22;8948;51.534;8.262;2023-12-20T04:33:39;6.80;77.30
17659;DHT22;8948;51.534;8.262;2023-12-20T04:38:39;6.80;76.90
17659;DHT22;8948;51.534;8.262;2023-12-20T04:43:40;6.80;77.10
17659;DHT22;8948;51.534;8.262;2023-12-20T04:48:40;6.80;76.30
17659;DHT22;8948;51.534;8.262;2023-12-20T04:53:41;6.80;76.40
17659;DHT22;8948;51.534;8.262;2023-12-20T04:58:42;6.80;76.30
17659;DHT22;8948;51.534;8.262;2023-12-20T05:03:43;6.60;76.40
17659;DHT22;8948;51.534;8.262;2023-12-20T05:08:43;6.60;76.60
17659;DHT22;8948;51.534;8.262;2023-12-20T05:13:44;6.50;77.00
17659;DHT22;8948;51.534;8.262;2023-12-20T05:18:45;6.40;76.80
17659;DHT22;8948;51.534;8.262;2023-12-20T05:23:46;6.40;77.20
17659;DHT22;8948;51.534;8.262;2023-12-20T05:28:46;6.40;77.40
17659;DHT22;8948;51.534;8.262;2023-12-20T05:33:47;6.40;77.50
17659;DHT22;8948;51.534;8.262;2023-12-20T05:38:47;6.50;77.70
17659;DHT22;8948;51.534;8.262;2023-12-20T05:43:48;6.60;77.50
17659;DHT22;8948;51.534;8.262;2023-12-20T05:48:49;6.50;77.80
17659;DHT22;8948;51.534;8.262;2023-12-20T05:53:49;6.60;77.50
17659;DHT22;8948;51.534;8.262;2023-12-20T05:58:50;6.70;77.70
17659;DHT22;8948;51.534;8.262;2023-12-20T06:03:51;6.70;77.20
17659;DHT22;8948;51.534;8.262;2023-12-20T06:08:51;6.60;77.20
17659;DHT22;8948;51.534;8.262;2023-12-20T06:13:52;6.50;77.40
17659;DHT22;8948;51.534;8.262;2023-12-20T06:18:53;6.50;77.80
17659;DHT22;8948;51.534;8.262;2023-12-20T06:23:54;6.40;77.40
17659;DHT22;8948;51.534;8.262;2023-12-20T06:28:55;6.40;77.40
17659;DHT22;8948;51.534;8.262;2023-12-20T06:33:56;6.40;77.40
17659;DHT22;8948;51.534;8.262;2023-12-20T06:38:57;6.40;77.40
17659;DHT22;8948;51.534;8.262;2023-12-20T06:43:58;6.50;77.20
17659;DHT22;8948;51.534;8.262;2023-12-20T06:48:58;6.50;77.20
17659;DHT22;8948;51.534;8.262;2023-12-20T06:53:59;6.50;76.90
17659;DHT22;8948;51.534;8.262;2023-12-20T06:59:00;6.50;77.60
17659;DHT22;8948;51.534;8.262;2023-12-20T07:04:01;6.50;77.10
17659;DHT22;8948;51.534;8.262;2023-12-20T07:09:01;6.50;77.10
17659;DHT22;8948;51.534;8.262;2023-12-20T07:14:02;6.60;77.20
17659;DHT22;8948;51.534;8.262;2023-12-20T07:19:02;6.50;77.20
17659;DHT22;8948;51.534;8.262;2023-12-20T07:24:03;6.60;77.30
17659;DHT22;8948;51.534;8.262;2023-12-20T07:29:03;6.60;77.40
17659;DHT22;8948;51.534;8.262;2023-12-20T07:34:04;6.60;77.30
17659;DHT22;8948;51.534;8.262;2023-12-20T07:39:05;6.60;77.20
17659;DHT22;8948;51.534;8.262;2023-12-20T07:44:06;6.60;77.10
17659;DHT22;8948;51.534;8.262;2023-12-20T07:49:07;6.60;77.00
17659;DHT22;8948;51.534;8.262;2023-12-20T07:54:08;6.60;76.20
17659;DHT22;8948;51.534;8.262;2023-12-20T07:59:09;6.60;76.00
17659;DHT22;8948;51.534;8.262;2023-12-20T08:04:10;6.60;76.10
17659;DHT22;8948;51.534;8.262;2023-12-20T08:09:10;6.60;76.10
17659;DHT22;8948;51.534;8.262;2023-12-20T08:14:11;6.60;76.40
17659;DHT22;8948;51.534;8.262;2023-12-20T08:19:11;6.60;76.00
17659;DHT22;8948;51.534;8.262;2023-12-20T08:24:12;6.70;76.70
17659;DHT22;8948;51.534;8.262;2023-12-20T08:29:15;6.60;75.70
17659;DHT22;8948;51.534;8.262;2023-12-20T08:34:16;6.60;76.40
17659;DHT22;8948;51.534;8.262;2023-12-20T08:39:17;6.60;76.40
17659;DHT22;8948;51.534;8.262;2023-12-20T08:44:17;6.60;76.40
17659;DHT22;8948;51.534;8.262;2023-12-20T08:49:18;6.60;76.70
17659;DHT22;8948;51.534;8.262;2023-12-20T08:54:18;6.50;76.60
17659;DHT22;8948;51.534;8.262;2023-12-20T08:59:19;6.60;76.70
17659;DHT22;8948;51.534;8.262;2023-12-20T09:04:20;6.60;76.20
17659;DHT22;8948;51.534;8.262;2023-12-20T09:09:21;6.70;75.70
17659;DHT22;8948;51.534;8.262;2023-12-20T09:14:21;6.70;75.60
17659;DHT22;8948;51.534;8.262;2023-12-20T09:19:22;6.70;75.50
17659;DHT22;8948;51.534;8.262;2023-12-20T09:24:22;6.70;75.80
17659;DHT22;8948;51.534;8.262;2023-12-20T09:29:23;6.80;76.00
17659;DHT22;8948;51.534;8.262;2023-12-20T09:34:25;6.80;76.10
17659;DHT22;8948;51.534;8.262;2023-12-20T09:39:26;6.80;75.70
17659;DHT22;8948;51.534;8.262;2023-12-20T09:44:26;6.80;76.10
17659;DHT22;8948;51.534;8.262;2023-12-20T09:49:27;6.80;76.10
17659;DHT22;8948;51.534;8.262;2023-12-20T09:54:28;6.80;76.40
17659;DHT22;8948;51.534;8.262;2023-12-20T09:59:29;6.80;76.10
17659;DHT22;8948;51.534;8.262;2023-12-20T10:04:31;6.90;76.00
17659;DHT22;8948;51.534;8.262;2023-12-20T10:09:32;6.90;76.20
17659;DHT22;8948;51.534;8.262;2023-12-20T10:14:34;7.00;76.20
17659;DHT22;8948;51.534;8.262;2023-12-20T10:19:37;7.00;75.90
17659;DHT22;8948;51.534;8.262;2023-12-20T10:24:37;7.00;75.90
17659;DHT22;8948;51.534;8.262;2023-12-20T10:29:38;7.00;76.00
17659;DHT22;8948;51.534;8.262;2023-12-20T10:34:39;7.00;76.00
17659;DHT22;8948;51.534;8.262;2023-12-20T10:39:40;7.10;76.10
17659;DHT22;8948;51.534;8.262;2023-12-20T10:44:42;7.20;75.50
17659;DHT22;8948;51.534;8.262;2023-12-20T10:49:43;7.30;75.50
17659;DHT22;8948;51.534;8.262;2023-12-20T10:54:45;7.30;74.90
17659;DHT22;8948;51.534;8.262;2023-12-20T10:59:48;7.30;74.60
17659;DHT22;8948;51.534;8.262;2023-12-20T11:04:58;7.30;75.00
17659;DHT22;8948;51.534;8.262;2023-12-20T11:15:20;7.20;75.20
17659;DHT22;8948;51.534;8.262;2023-12-20T11:20:23;7.20;75.70
17659;DHT22;8948;51.534;8.262;2023-12-20T11:25:24;7.20;75.90
17659;DHT22;8948;51.534;8.262;2023-12-20T11:30:24;7.20;76.00
17659;DHT22;8948;51.534;8.262;2023-12-20T11:35:25;7.10;75.40
17659;DHT22;8948;51.534;8.262;2023-12-20T11:40:26;7.10;76.20
17659;DHT22;8948;51.534;8.262;2023-12-20T11:45:27;7.20;76.30
17659;DHT22;8948;51.534;8.262;2023-12-20T11:50:28;7.20;76.80
17659;DHT22;8948;51.534;8.262;2023-12-20T11:55:30;7.20;76.80
17659;DHT22;8948;51.534;8.262;2023-12-20T12:00:30;7.20;76.90
17659;DHT22;8948;51.534;8.262;2023-12-20T12:05:31;7.20;77.00
17659;DHT22;8948;51.534;8.262;2023-12-20T12:10:32;7.30;76.70
17659;DHT22;8948;51.534;8.262;2023-12-20T12:15:33;7.20;77.20
17659;DHT22;8948;51.534;8.262;2023-12-20T12:20:33;7.10;76.80
17659;DHT22;8948;51.534;8.262;2023-12-20T12:25:36;7.20;76.20
17659;DHT22;8948;51.534;8.262;2023-12-20T12:30:39;7.20;76.80
17659;DHT22;8948;51.534;8.262;2023-12-20T12:35:40;7.20;76.70
17659;DHT22;8948;51.534;8.262;2023-12-20T12:40:43;7.30;76.00
17659;DHT22;8948;51.534;8.262;2023-12-20T12:45:44;7.30;76.10
17659;DHT22;8948;51.534;8.262;2023-12-20T12:50:47;7.30;75.70
17659;DHT22;8948;51.534;8.262;2023-12-20T12:55:48;7.30;76.10
17659;DHT22;8948;51.534;8.262;2023-12-20T13:00:48;7.30;76.50
17659;DHT22;8948;51.534;8.262;2023-12-20T13:05:49;7.30;75.80
17659;DHT22;8948;51.534;8.262;2023-12-20T13:10:50;7.30;76.50
17659;DHT22;8948;51.534;8.262;2023-12-20T13:15:50;7.30;76.50
17659;DHT22;8948;51.534;8.262;2023-12-20T13:20:55;7.40;76.60
17659;DHT22;8948;51.534;8.262;2023-12-20T13:25:55;7.40;77.20
17659;DHT22;8948;51.534;8.262;2023-12-20T13:30:56;7.30;76.60
17659;DHT22;8948;51.534;8.262;2023-12-20T13:35:56;7.30;76.90
17659;DHT22;8948;51.534;8.262;2023-12-20T13:40:58;7.40;76.60
17659;DHT22;8948;51.534;8.262;2023-12-20T13:45:59;7.40;76.20
17659;DHT22;8948;51.534;8.262;2023-12-20T13:51:00;7.30;76.60
17659;DHT22;8948;51.534;8.262;2023-12-20T13:56:00;7.40;76.70
17659;DHT22;8948;51.534;8.262;2023-12-20T14:01:01;7.40;76.40
17659;DHT22;8948;51.534;8.262;2023-12-20T14:06:02;7.50;76.20
17659;DHT22;8948;51.534;8.262;2023-12-20T14:11:03;7.40;76.30
17659;DHT22;8948;51.534;8.262;2023-12-20T14:16:03;7.40;76.40
17659;DHT22;8948;51.534;8.262;2023-12-20T14:21:04;7.40;76.40
17659;DHT22;8948;51.534;8.262;2023-12-20T14:26:06;7.40;76.20
17659;DHT22;8948;51.534;8.262;2023-12-20T14:31:07;7.30;76.10
17659;DHT22;8948;51.534;8.262;2023-12-20T14:36:07;7.30;76.40
17659;DHT22;8948;51.534;8.262;2023-12-20T14:41:08;7.30;76.90
17659;DHT22;8948;51.534;8.262;2023-12-20T14:46:09;7.20;76.90
17659;DHT22;8948;51.534;8.262;2023-12-20T14:51:10;7.30;76.90
17659;DHT22;8948;51.534;8.262;2023-12-20T14:56:12;7.30;77.00
17659;DHT22;8948;51.534;8.262;2023-12-20T15:01:12;7.30;76.80
17659;DHT22;8948;51.534;8.262;2023-12-20T15:06:13;7.30;77.10
17659;DHT22;8948;51.534;8.262;2023-12-20T15:11:13;7.30;77.20
17659;DHT22;8948;51.534;8.262;2023-12-20T15:16:14;7.30;77.10
17659;DHT22;8948;51.534;8.262;2023-12-20T15:21:15;7.30;77.50
17659;DHT22;8948;51.534;8.262;2023-12-20T15:26:16;7.40;78.10
17659;DHT22;8948;51.534;8.262;2023-12-20T15:31:16;7.30;78.40
17659;DHT22;8948;51.534;8.262;2023-12-20T15:36:17;7.20;78.40
17659;DHT22;8948;51.534;8.262;2023-12-20T15:41:24;7.30;78.50
17659;DHT22;8948;51.534;8.262;2023-12-20T15:46:24;7.30;78.30
17659;DHT22;8948;51.534;8.262;2023-12-20T15:51:25;7.20;78.20
17659;DHT22;8948;51.534;8.262;2023-12-20T15:56:25;7.20;77.90
17659;DHT22;8948;51.534;8.262;2023-12-20T16:01:26;7.30;77.40
17659;DHT22;8948;51.534;8.262;2023-12-20T16:06:27;7.30;77.70
17659;DHT22;8948;51.534;8.262;2023-12-20T16:11:27;7.30;77.90
17659;DHT22;8948;51.534;8.262;2023-12-20T16:16:28;7.30;77.90
17659;DHT22;8948;51.534;8.262;2023-12-20T16:21:28;7.30;77.90
17659;DHT22;8948;51.534;8.262;2023-12-20T16:26:29;7.40;78.10
17659;DHT22;8948;51.534;8.262;2023-12-20T16:31:30;7.40;78.30
17659;DHT22;8948;51.534;8.262;2023-12-20T16:36:51;7.40;78.40
17659;DHT22;8948;51.534;8.262;2023-12-20T16:41:52;7.40;78.20
17659;DHT22;8948;51.534;8.262;2023-12-20T16:46:53;7.40;78.10
17659;DHT22;8948;51.534;8.262;2023-12-20T16:51:53;7.50;78.00
17659;DHT22;8948;51.534;8.262;2023-12-20T16:56:54;7.40;77.70
17659;DHT22;8948;51.534;8.262;2023-12-20T17:01:54;7.50;77.70
17659;DHT22;8948;51.534;8.262;2023-12-20T17:06:55;7.50;77.60
17659;DHT22;8948;51.534;8.262;2023-12-20T17:11:55;7.50;77.70
17659;DHT22;8948;51.534;8.262;2023-12-20T17:16:56;7.50;77.50
17659;DHT22;8948;51.534;8.262;2023-12-20T17:21:57;7.50;77.50
17659;DHT22;8948;51.534;8.262;2023-12-20T17:26:57;7.50;77.50
17659;DHT22;8948;51.534;8.262;2023-12-20T17:31:58;7.50;77.00
17659;DHT22;8948;51.534;8.262;2023-12-20T17:36:58;7.50;77.10
17659;DHT22;8948;51.534;8.262;2023-12-20T17:41:59;7.50;76.80
17659;DHT22;8948;51.534;8.262;2023-12-20T17:47:00;7.60;76.30
17659;DHT22;8948;51.534;8.262;2023-12-20T17:52:00;7.60;76.20
17659;DHT22;8948;51.534;8.262;2023-12-20T17:57:01;7.60;76.50
17659;DHT22;8948;51.534;8.262;2023-12-20T18:02:02;7.60;77.00
17659;DHT22;8948;51.534;8.262;2023-12-20T18:07:02;7.60;77.70
17659;DHT22;8948;51.534;8.262;2023-12-20T18:12:03;7.60;77.70
17659;DHT22;8948;51.534;8.262;2023-12-20T18:17:07;7.50;78.10
17659;DHT22;8948;51.534;8.262;2023-12-20T18:22:07;7.50;78.30
17659;DHT22;8948;51.534;8.262;2023-12-20T18:27:10;7.50;78.70
17659;DHT22;8948;51.534;8.262;2023-12-20T18:32:10;7.50;79.30
17659;DHT22;8948;51.534;8.262;2023-12-20T18:37:11;7.50;79.30
17659;DHT22;8948;51.534;8.262;2023-12-20T18:42:12;7.50;79.30
17659;DHT22;8948;51.534;8.262;2023-12-20T18:47:12;7.50;79.60
17659;DHT22;8948;51.534;8.262;2023-12-20T18:52:13;7.50;79.30
17659;DHT22;8948;51.534;8.262;2023-12-20T18:57:13;7.50;79.40
17659;DHT22;8948;51.534;8.262;2023-12-20T19:02:14;7.50;79.00
17659;DHT22;8948;51.534;8.262;2023-12-20T19:07:14;7.50;78.80
17659;DHT22;8948;51.534;8.262;2023-12-20T19:12:15;7.60;78.70
17659;DHT22;8948;51.534;8.262;2023-12-20T19:17:17;7.60;78.20
17659;DHT22;8948;51.534;8.262;2023-12-20T19:22:17;7.60;78.50
17659;DHT22;8948;51.534;8.262;2023-12-20T19:27:18;7.60;78.50
17659;DHT22;8948;51.534;8.262;2023-12-20T19:32:18;7.70;78.10
17659;DHT22;8948;51.534;8.262;2023-12-20T19:37:19;7.70;78.00
17659;DHT22;8948;51.534;8.262;2023-12-20T19:42:19;7.70;78.10
17659;DHT22;8948;51.534;8.262;2023-12-20T19:47:20;7.70;78.20
17659;DHT22;8948;51.534;8.262;2023-12-20T19:52:21;7.80;78.30
17659;DHT22;8948;51.534;8.262;2023-12-20T19:57:22;7.80;78.60
17659;DHT22;8948;51.534;8.262;2023-12-20T20:02:22;7.80;78.90
17659;DHT22;8948;51.534;8.262;2023-12-20T20:07:23;7.80;79.00
17659;DHT22;8948;51.534;8.262;2023-12-20T20:12:25;7.80;79.00
17659;DHT22;8948;51.534;8.262;2023-12-20T20:17:26;7.80;79.60
17659;DHT22;8948;51.534;8.262;2023-12-20T20:22:27;7.70;80.10
17659;DHT22;8948;51.534;8.262;2023-12-20T20:27:27;7.80;80.10
17659;DHT22;8948;51.534;8.262;2023-12-20T20:32:28;7.80;80.40
17659;DHT22;8948;51.534;8.262;2023-12-20T20:37:28;7.80;81.00
17659;DHT22;8948;51.534;8.262;2023-12-20T20:42:29;7.80;81.70
17659;DHT22;8948;51.534;8.262;2023-12-20T20:47:30;7.70;81.70
17659;DHT22;8948;51.534;8.262;2023-12-20T20:52:30;7.70;82.10
17659;DHT22;8948;51.534;8.262;2023-12-20T20:57:31;7.70;82.60
17659;DHT22;8948;51.534;8.262;2023-12-20T21:02:32;7.70;82.90
17659;DHT22;8948;51.534;8.262;2023-12-20T21:07:33;7.70;83.20
17659;DHT22;8948;51.534;8.262;2023-12-20T21:12:34;7.80;83.20
17659;DHT22;8948;51.534;8.262;2023-12-20T21:17:34;7.70;83.40
17659;DHT22;8948;51.534;8.262;2023-12-20T21:22:36;7.80;83.50
17659;DHT22;8948;51.534;8.262;2023-12-20T21:27:37;7.80;83.50
17659;DHT22;8948;51.534;8.262;2023-12-20T21:32:40;7.90;83.20
17659;DHT22;8948;51.534;8.262;2023-12-20T21:37:42;7.80;83.60
17659;DHT22;8948;51.534;8.262;2023-12-20T21:42:44;7.90;83.30
17659;DHT22;8948;51.534;8.262;2023-12-20T21:47:45;7.90;83.60
17659;DHT22;8948;51.534;8.262;2023-12-20T21:52:46;7.90;83.20
17659;DHT22;8948;51.534;8.262;2023-12-20T21:57:47;7.90;83.10
17659;DHT22;8948;51.534;8.262;2023-12-20T22:02:47;8.00;82.80
17659;DHT22;8948;51.534;8.262;2023-12-20T22:07:48;8.00;83.10
17659;DHT22;8948;51.534;8.262;2023-12-20T22:12:48;8.00;83.40
17659;DHT22;8948;51.534;8.262;2023-12-20T22:17:49;8.00;83.40
17659;DHT22;8948;51.534;8.262;2023-12-20T22:22:50;8.00;83.60
17659;DHT22;8948;51.534;8.262;2023-12-20T22:27:51;8.00;83.70
17659;DHT22;8948;51.534;8.262;2023-12-20T22:32:52;8.00;83.50
17659;DHT22;8948;51.534;8.262;2023-12-20T22:37:52;8.00;83.60
17659;DHT22;8948;51.534;8.262;2023-12-20T22:42:54;8.00;83.80
17659;DHT22;8948;51.534;8.262;2023-12-20T22:47:55;8.10;83.50
17659;DHT22;8948;51.534;8.262;2023-12-20T22:52:55;8.10;83.60
17659;DHT22;8948;51.534;8.262;2023-12-20T22:57:56;8.10;83.80
17659;DHT22;8948;51.534;8.262;2023-12-20T23:02:56;8.20;83.20
17659;DHT22;8948;51.534;8.262;2023-12-20T23:07:57;8.20;83.90
17659;DHT22;8948;51.534;8.262;2023-12-20T23:12:58;8.20;83.60
17659;DHT22;8948;51.534;8.262;2023-12-20T23:17:58;8.20;83.70
17659;DHT22;8948;51.534;8.262;2023-12-20T23:22:59;8.20;83.60
17659;DHT22;8948;51.534;8.262;2023-12-20T23:28:00;8.30;84.00
17659;DHT22;8948;51.534;8.262;2023-12-20T23:33:00;8.30;84.00
17659;DHT22;8948;51.534;8.262;2023-12-20T23:38:01;8.30;84.00
17659;DHT22;8948;51.534;8.262;2023-12-20T23:43:02;8.30;83.90
17659;DHT22;8948;51.534;8.262;2023-12-20T23:48:03;8.30;83.60
17659;DHT22;8948;51.534;8.262;2023-12-20T23:53:04;8.30;83.70
17659;DHT22;8948;51.534;8.262;2023-12-20T23:58:04;8.40;83.70
